createdAt,value
2023-02-18T00:00:13.377Z,25.27
2023-02-18T00:02:41.097Z,27.53
2023-02-18T00:05:10.590Z,26.60
2023-02-18T00:07:39.362Z,25.27
2023-02-18T00:10:09.036Z,26.13
2023-02-18T00:12:36.763Z,27.23
2023-02-18T00:15:04.932Z,29.97
2023-02-18T00:17:32.635Z,29.13
2023-02-18T00:20:00.421Z,29.33
2023-02-18T00:22:29.979Z,27.37
2023-02-18T00:24:57.689Z,28.90
2023-02-18T00:27:25.433Z,29.23
2023-02-18T00:29:53.443Z,34.70
2023-02-18T00:32:21.254Z,31.53
2023-02-18T00:34:49.056Z,31.90
2023-02-18T00:37:16.728Z,33.30
2023-02-18T00:39:45.817Z,24.70
2023-02-18T00:42:14.479Z,31.63
2023-02-18T00:44:42.262Z,38.40
2023-02-18T00:47:10.205Z,36.53
2023-02-18T00:49:38.094Z,32.40
2023-02-18T00:52:06.043Z,31.90
2023-02-18T00:54:33.728Z,35.87
2023-02-18T00:57:02.770Z,43.80
2023-02-18T00:59:30.513Z,36.43
2023-02-18T01:01:58.219Z,34.60
2023-02-18T01:04:25.980Z,43.17
2023-02-18T01:06:53.644Z,37.70
2023-02-18T01:09:21.481Z,40.30
2023-02-18T01:11:49.177Z,41.07
2023-02-18T01:14:18.275Z,37.63
2023-02-18T01:16:45.952Z,36.97
2023-02-18T01:19:13.782Z,35.13
2023-02-18T01:21:41.516Z,38.50
2023-02-18T01:24:09.252Z,39.73
2023-02-18T01:26:37.002Z,38.10
2023-02-18T01:29:05.178Z,46.53
2023-02-18T01:31:34.400Z,47.97
2023-02-18T01:34:02.235Z,43.53
2023-02-18T01:36:29.995Z,50.47
2023-02-18T01:38:57.695Z,53.07
2023-02-18T01:41:25.435Z,54.83
2023-02-18T01:44:14.716Z,63.80
2023-02-18T01:46:43.797Z,60.43
2023-02-18T01:49:14.104Z,54.60
2023-02-18T01:51:44.826Z,58.57
2023-02-18T01:54:15.900Z,69.50
2023-02-18T01:56:46.687Z,57.93
2023-02-18T01:59:19.433Z,67.03
2023-02-18T02:01:48.643Z,68.33
2023-02-18T02:04:16.380Z,66.03
2023-02-18T02:06:45.096Z,69.37
2023-02-18T02:09:17.120Z,79.33
2023-02-18T02:12:05.275Z,79.40
2023-02-18T02:14:45.208Z,69.53
2023-02-18T02:17:18.726Z,85.10
2023-02-18T02:20:14.805Z,77.50
2023-02-18T02:23:09.208Z,72.43
2023-02-18T02:25:55.038Z,70.60
2023-02-18T02:28:46.381Z,72.83
2023-02-18T02:31:41.560Z,82.20
2023-02-18T02:34:33.825Z,75.77
2023-02-18T02:37:04.149Z,76.13
2023-02-18T02:39:36.263Z,85.30
2023-02-18T02:42:09.356Z,83.30
2023-02-18T02:44:41.074Z,91.43
2023-02-18T02:47:12.871Z,84.97
2023-02-18T02:49:47.889Z,83.10
2023-02-18T02:52:20.990Z,83.33
2023-02-18T02:54:48.754Z,86.87
2023-02-18T02:57:48.765Z,84.20
2023-02-18T03:00:18.696Z,83.87
2023-02-18T03:03:19.193Z,94.07
2023-02-18T03:05:57.496Z,90.73
2023-02-18T03:08:41.689Z,76.23
2023-02-18T03:11:11.468Z,76.20
2023-02-18T03:13:50.744Z,85.53
2023-02-18T03:16:27.029Z,78.03
2023-02-18T03:19:00.641Z,87.77
2023-02-18T03:21:31.999Z,75.83
2023-02-18T03:24:02.651Z,81.63
2023-02-18T03:26:32.998Z,81.17
2023-02-18T03:29:04.515Z,87.63
2023-02-18T03:31:34.374Z,86.07
2023-02-18T03:34:05.014Z,86.00
2023-02-18T03:36:35.506Z,93.33
2023-02-18T03:39:05.875Z,79.77
2023-02-18T03:41:33.921Z,93.70
2023-02-18T03:44:03.478Z,84.40
2023-02-18T03:46:32.183Z,85.77
2023-02-18T03:49:00.175Z,84.27
2023-02-18T03:51:28.170Z,78.70
2023-02-18T03:53:57.215Z,82.13
2023-02-18T03:56:25.130Z,73.03
2023-02-18T03:58:52.812Z,73.90
2023-02-18T04:01:20.710Z,83.03
2023-02-18T04:03:48.413Z,76.43
2023-02-18T04:06:16.136Z,74.27
2023-02-18T04:08:44.106Z,68.20
2023-02-18T04:11:13.257Z,73.20
2023-02-18T04:13:40.952Z,67.60
2023-02-18T04:16:09.011Z,62.13
2023-02-18T04:18:36.987Z,64.13
2023-02-18T04:21:04.947Z,61.60
2023-02-18T04:23:32.713Z,66.13
2023-02-18T04:26:00.377Z,56.67
2023-02-18T04:28:29.492Z,57.43
2023-02-18T04:30:57.282Z,56.47
2023-02-18T04:33:24.984Z,52.03
2023-02-18T04:35:52.673Z,55.00
2023-02-18T04:38:20.407Z,53.80
2023-02-18T04:40:48.154Z,56.07
2023-02-18T04:43:15.910Z,57.93
2023-02-18T04:45:45.049Z,62.47
2023-02-18T04:48:12.845Z,71.83
2023-02-18T04:50:40.622Z,74.83
2023-02-18T04:53:08.358Z,72.93
2023-02-18T04:55:36.472Z,81.67
2023-02-18T04:58:04.199Z,83.27
2023-02-18T05:00:31.867Z,87.30
2023-02-18T05:03:00.989Z,101.53
2023-02-18T05:05:28.678Z,85.03
2023-02-18T05:07:56.384Z,86.20
2023-02-18T05:10:24.103Z,73.97
2023-02-18T05:12:51.834Z,74.40
2023-02-18T05:15:19.814Z,75.00
2023-02-18T05:17:47.482Z,66.20
2023-02-18T05:20:16.588Z,58.73
2023-02-18T05:22:44.249Z,63.60
2023-02-18T05:25:11.947Z,64.07
2023-02-18T05:27:39.587Z,65.57
2023-02-18T05:30:08.607Z,62.90
2023-02-18T05:32:36.371Z,67.57
2023-02-18T05:35:04.200Z,62.40
2023-02-18T05:37:33.297Z,63.27
2023-02-18T05:40:01.010Z,57.97
2023-02-18T05:42:28.691Z,55.83
2023-02-18T05:44:56.349Z,58.80
2023-02-18T05:47:24.086Z,52.07
2023-02-18T05:49:51.997Z,53.77
2023-02-18T05:52:19.759Z,49.60
2023-02-18T05:54:48.995Z,53.07
2023-02-18T05:57:16.744Z,45.93
2023-02-18T05:59:44.388Z,44.67
2023-02-18T06:02:12.144Z,44.70
2023-02-18T06:04:40.709Z,39.93
2023-02-18T06:07:08.854Z,41.83
2023-02-18T06:09:36.668Z,35.97
2023-02-18T06:12:06.181Z,40.80
2023-02-18T06:14:33.911Z,35.37
2023-02-18T06:17:01.634Z,38.77
2023-02-18T06:19:29.287Z,35.30
2023-02-18T06:21:57.099Z,28.23
2023-02-18T06:24:24.769Z,29.83
2023-02-18T06:26:52.464Z,28.47
2023-02-18T06:29:21.513Z,27.00
2023-02-18T06:31:49.234Z,29.57
2023-02-18T06:34:17.183Z,26.43
2023-02-18T06:36:44.893Z,23.37
2023-02-18T06:39:12.652Z,20.77
2023-02-18T06:41:40.515Z,24.40
2023-02-18T06:44:08.715Z,25.23
2023-02-18T06:46:38.172Z,21.27
2023-02-18T06:49:05.914Z,24.73
2023-02-18T06:51:33.596Z,21.23
2023-02-18T06:54:01.296Z,20.10
2023-02-18T06:56:30.905Z,23.00
2023-02-18T06:58:58.739Z,20.40
2023-02-18T07:01:26.484Z,20.77
2023-02-18T07:03:55.739Z,21.70
2023-02-18T07:06:23.531Z,23.90
2023-02-18T07:08:51.209Z,23.73
2023-02-18T07:11:18.992Z,24.27
2023-02-18T07:13:46.742Z,21.27
2023-02-18T07:16:14.462Z,22.00
2023-02-18T07:18:42.228Z,20.33
2023-02-18T07:21:11.233Z,25.60
2023-02-18T07:23:39.014Z,25.30
2023-02-18T07:26:08.482Z,20.50
2023-02-18T07:28:36.334Z,22.10
2023-02-18T07:31:04.457Z,21.87
2023-02-18T07:33:32.466Z,20.20
2023-02-18T07:36:02.216Z,20.63
2023-02-18T07:38:31.517Z,21.63
2023-02-18T07:40:59.533Z,22.90
2023-02-18T07:43:27.291Z,17.50
2023-02-18T07:45:55.180Z,21.50
2023-02-18T07:48:23.106Z,18.50
2023-02-18T07:50:50.822Z,22.50
2023-02-18T07:53:18.554Z,21.17
2023-02-18T07:55:50.279Z,23.13
2023-02-18T07:58:18.270Z,24.53
2023-02-18T08:00:47.594Z,27.20
2023-02-18T08:03:15.407Z,27.13
2023-02-18T08:05:43.118Z,30.70
2023-02-18T08:08:14.034Z,29.00
2023-02-18T08:10:41.840Z,28.83
2023-02-18T08:13:11.140Z,34.07
2023-02-18T08:15:39.137Z,26.47
2023-02-18T08:18:07.916Z,30.57
2023-02-18T08:20:37.134Z,27.07
2023-02-18T08:23:04.882Z,32.63
2023-02-18T08:25:32.563Z,30.00
2023-02-18T08:28:00.732Z,31.70
2023-02-18T08:30:30.063Z,29.97
2023-02-18T08:32:58.319Z,31.47
2023-02-18T08:35:26.085Z,35.30
2023-02-18T08:37:54.304Z,34.77
2023-02-18T08:40:22.818Z,38.43
2023-02-18T08:42:50.530Z,34.23
2023-02-18T08:45:18.377Z,32.57
2023-02-18T08:48:18.158Z,34.37
2023-02-18T08:50:35.566Z,31.17
2023-02-18T08:53:03.943Z,30.50
2023-02-18T08:55:31.833Z,36.03
2023-02-18T08:57:59.613Z,28.47
2023-02-18T09:00:27.418Z,27.63
2023-02-18T09:02:56.679Z,21.03
2023-02-18T09:05:24.399Z,28.30
2023-02-18T09:07:52.116Z,22.30
2023-02-18T09:10:20.327Z,21.83
2023-02-18T09:12:48.083Z,24.27
2023-02-18T09:15:15.809Z,20.77
2023-02-18T09:17:43.555Z,18.93
2023-02-18T09:20:13.336Z,25.47
2023-02-18T09:22:41.021Z,22.67
2023-02-18T09:25:09.288Z,23.10
2023-02-18T09:27:37.099Z,18.67
2023-02-18T09:30:05.201Z,22.73
2023-02-18T09:32:35.193Z,24.17
2023-02-18T09:35:03.479Z,27.43
2023-02-18T09:37:32.549Z,21.57
2023-02-18T09:40:00.902Z,19.30
2023-02-18T09:42:31.295Z,19.23
2023-02-18T09:45:01.387Z,21.47
2023-02-18T09:47:33.079Z,16.93
2023-02-18T09:50:07.595Z,18.33
2023-02-18T09:52:38.698Z,20.50
2023-02-18T09:55:19.546Z,16.03
2023-02-18T09:57:50.118Z,11.70
2023-02-18T10:00:21.514Z,14.00
2023-02-18T10:02:56.005Z,11.47
2023-02-18T10:05:24.774Z,17.17
2023-02-18T10:07:55.898Z,16.00
2023-02-18T10:10:32.639Z,20.57
2023-02-18T10:13:01.916Z,17.47
2023-02-18T10:15:31.203Z,22.33
2023-02-18T10:17:59.955Z,17.30
2023-02-18T10:20:30.819Z,20.57
2023-02-18T10:23:02.384Z,25.10
2023-02-18T10:25:30.825Z,21.90
2023-02-18T10:28:00.033Z,19.47
2023-02-18T10:30:32.346Z,20.70
2023-02-18T10:33:08.113Z,23.73
2023-02-18T10:35:40.388Z,23.00
2023-02-18T10:38:15.397Z,26.70
2023-02-18T10:40:53.174Z,26.53
2023-02-18T10:43:25.582Z,30.30
2023-02-18T10:45:59.047Z,18.67
2023-02-18T10:48:41.406Z,20.77
2023-02-18T10:51:16.423Z,23.80
2023-02-18T10:53:46.729Z,17.97
2023-02-18T10:56:35.159Z,21.30
2023-02-18T10:59:10.807Z,18.97
2023-02-18T11:01:39.047Z,23.93
2023-02-18T11:04:13.187Z,28.83
2023-02-18T11:06:42.730Z,22.33
2023-02-18T11:09:26.868Z,24.10
2023-02-18T11:12:08.426Z,25.03
2023-02-18T11:14:44.292Z,24.10
2023-02-18T11:17:19.667Z,22.67
2023-02-18T11:19:54.212Z,21.57
2023-02-18T11:22:23.771Z,23.17
2023-02-18T11:24:57.497Z,19.27
2023-02-18T11:27:28.936Z,20.13
2023-02-18T11:30:00.967Z,24.27
2023-02-18T11:32:29.683Z,21.63
2023-02-18T11:34:57.532Z,18.47
2023-02-18T11:37:25.540Z,23.43
2023-02-18T11:39:56.183Z,17.57
2023-02-18T11:42:26.653Z,15.60
2023-02-18T11:44:56.034Z,19.97
2023-02-18T11:47:29.353Z,13.50
2023-02-18T11:50:17.995Z,25.10
2023-02-18T11:52:47.343Z,24.47
2023-02-18T11:55:19.876Z,22.57
2023-02-18T11:57:50.492Z,28.13
2023-02-18T12:00:24.161Z,16.10
2023-02-18T12:02:53.347Z,16.97
2023-02-18T12:05:23.961Z,15.87
2023-02-18T12:07:54.225Z,24.83
2023-02-18T12:10:28.555Z,18.63
2023-02-18T12:13:02.465Z,18.77
2023-02-18T12:15:38.825Z,19.60
2023-02-18T12:18:42.778Z,13.17
2023-02-18T12:21:16.979Z,11.93
2023-02-18T12:23:52.434Z,19.10
2023-02-18T12:26:26.734Z,14.50
2023-02-18T12:29:13.664Z,18.70
2023-02-18T12:31:49.373Z,20.80
2023-02-18T12:34:31.175Z,15.33
2023-02-18T12:37:09.448Z,16.93
2023-02-18T12:39:48.526Z,19.03
2023-02-18T12:42:30.730Z,28.10
2023-02-18T12:45:09.763Z,12.90
2023-02-18T12:47:51.004Z,15.50
2023-02-18T12:50:45.038Z,13.97
2023-02-18T12:53:26.040Z,13.00
2023-02-18T12:56:03.747Z,16.93
2023-02-18T12:58:41.713Z,17.97
2023-02-18T13:01:33.408Z,14.03
2023-02-18T13:04:19.533Z,14.87
2023-02-18T13:07:15.341Z,11.40
2023-02-18T13:09:54.988Z,14.53
2023-02-18T13:12:26.091Z,14.27
2023-02-18T13:15:00.880Z,13.33
2023-02-18T13:17:32.400Z,13.77
2023-02-18T13:20:04.680Z,19.13
2023-02-18T13:22:32.919Z,12.77
2023-02-18T13:25:00.659Z,13.10
2023-02-18T13:27:32.892Z,12.17
2023-02-18T13:30:20.626Z,11.63
2023-02-18T13:32:56.051Z,17.57
2023-02-18T13:35:26.757Z,11.43
2023-02-18T13:38:15.677Z,14.23
2023-02-18T13:40:43.652Z,12.47
2023-02-18T13:43:22.724Z,10.90
2023-02-18T13:46:10.788Z,11.57
2023-02-18T13:48:45.524Z,12.27
2023-02-18T13:51:14.940Z,18.63
2023-02-18T13:53:44.736Z,13.20
2023-02-18T13:56:22.089Z,13.53
2023-02-18T13:58:51.321Z,10.97
2023-02-18T14:01:26.529Z,8.83
2023-02-18T14:03:59.715Z,15.47
2023-02-18T14:06:29.528Z,10.73
2023-02-18T14:09:36.435Z,14.80
2023-02-18T14:12:28.654Z,10.57
2023-02-18T14:14:56.424Z,9.97
2023-02-18T14:17:42.127Z,13.57
2023-02-18T14:20:33.092Z,10.73
2023-02-18T14:23:00.980Z,9.57
2023-02-18T14:25:37.091Z,11.30
2023-02-18T14:28:33.451Z,11.17
2023-02-18T14:31:03.007Z,10.63
2023-02-18T14:33:33.142Z,11.50
2023-02-18T14:36:10.023Z,16.63
2023-02-18T14:38:44.613Z,12.50
2023-02-18T14:41:34.146Z,10.47
2023-02-18T14:44:26.155Z,13.00
2023-02-18T14:47:15.469Z,11.70
2023-02-18T14:49:46.132Z,14.87
2023-02-18T14:52:24.987Z,10.27
2023-02-18T14:54:52.802Z,12.13
2023-02-18T14:57:23.947Z,12.97
2023-02-18T14:59:58.913Z,15.10
2023-02-18T15:02:30.421Z,16.00
2023-02-18T15:05:14.006Z,20.17
2023-02-18T15:07:41.910Z,16.33
2023-02-18T15:10:15.968Z,13.90
2023-02-18T15:12:43.743Z,12.53
2023-02-18T15:15:15.502Z,13.03
2023-02-18T15:17:47.516Z,11.00
2023-02-18T15:20:16.816Z,14.33
2023-02-18T15:22:44.803Z,12.73
2023-02-18T15:25:14.338Z,13.07
2023-02-18T15:27:45.811Z,12.80
2023-02-18T15:30:23.140Z,11.97
2023-02-18T15:32:54.555Z,17.00
2023-02-18T15:35:29.237Z,15.67
2023-02-18T15:37:58.460Z,12.07
2023-02-18T15:40:29.965Z,11.17
2023-02-18T15:42:59.328Z,11.07
2023-02-18T15:45:31.612Z,16.90
2023-02-18T15:47:59.980Z,15.97
2023-02-18T15:50:31.860Z,18.00
2023-02-18T15:53:00.847Z,17.70
2023-02-18T15:55:32.473Z,12.43
2023-02-18T15:58:01.736Z,12.53
2023-02-18T16:00:31.765Z,20.53
2023-02-18T16:03:04.747Z,16.00
2023-02-18T16:05:38.390Z,12.50
2023-02-18T16:08:12.306Z,15.30
2023-02-18T16:10:44.678Z,14.80
2023-02-18T16:13:15.525Z,16.13
2023-02-18T16:15:45.495Z,16.40
2023-02-18T16:18:27.215Z,12.30
2023-02-18T16:21:02.376Z,14.47
2023-02-18T16:23:36.898Z,11.70
2023-02-18T16:26:22.748Z,12.90
2023-02-18T16:28:52.721Z,16.30
2023-02-18T16:31:21.636Z,13.93
2023-02-18T16:33:50.104Z,19.93
2023-02-18T16:36:19.175Z,12.43
2023-02-18T16:38:46.890Z,9.70
2023-02-18T16:41:15.483Z,13.63
2023-02-18T16:43:43.544Z,11.00
2023-02-18T16:46:16.379Z,17.27
2023-02-18T16:48:45.246Z,17.83
2023-02-18T16:51:15.419Z,14.50
2023-02-18T16:53:44.558Z,16.10
2023-02-18T16:56:15.580Z,12.47
2023-02-18T16:58:43.558Z,14.17
2023-02-18T17:01:19.953Z,11.67
2023-02-18T17:03:48.930Z,11.10
2023-02-18T17:06:16.890Z,12.50
2023-02-18T17:08:45.977Z,11.00
2023-02-18T17:11:20.467Z,18.90
2023-02-18T17:13:49.102Z,18.27
2023-02-18T17:16:17.082Z,15.53
2023-02-18T17:18:45.067Z,16.40
2023-02-18T17:21:14.339Z,13.93
2023-02-18T17:23:43.632Z,13.97
2023-02-18T17:26:17.299Z,11.20
2023-02-18T17:28:45.039Z,12.57
2023-02-18T17:31:15.765Z,13.47
2023-02-18T17:33:43.999Z,22.93
2023-02-18T17:36:12.327Z,15.13
2023-02-18T17:38:40.409Z,14.27
2023-02-18T17:41:08.520Z,18.40
2023-02-18T17:43:38.080Z,15.97
2023-02-18T17:46:06.203Z,14.60
2023-02-18T17:48:33.948Z,14.73
2023-02-18T17:51:01.816Z,14.67
2023-02-18T17:53:29.475Z,18.10
2023-02-18T17:55:57.287Z,16.03
2023-02-18T17:58:24.963Z,12.67
2023-02-18T18:00:56.262Z,19.23
2023-02-18T18:03:24.601Z,15.17
2023-02-18T18:05:54.406Z,15.07
2023-02-18T18:08:22.142Z,15.53
2023-02-18T18:10:51.600Z,16.80
2023-02-18T18:13:22.199Z,17.77
2023-02-18T18:15:50.203Z,15.47
2023-02-18T18:18:19.392Z,17.30
2023-02-18T18:20:49.457Z,15.50
2023-02-18T18:23:17.989Z,19.83
2023-02-18T18:25:47.308Z,14.97
2023-02-18T18:28:15.229Z,17.80
2023-02-18T18:30:44.725Z,20.90
2023-02-18T18:33:16.494Z,19.27
2023-02-18T18:35:46.849Z,22.90
2023-02-18T18:38:14.913Z,25.10
2023-02-18T18:40:43.110Z,19.97
2023-02-18T18:43:13.601Z,25.03
2023-02-18T18:45:41.349Z,22.67
2023-02-18T18:48:09.005Z,13.20
2023-02-18T18:50:39.251Z,18.00
2023-02-18T18:53:09.168Z,16.63
2023-02-18T18:55:38.264Z,15.77
2023-02-18T18:58:06.372Z,14.87
2023-02-18T19:00:35.844Z,18.40
2023-02-18T19:03:04.254Z,18.63
2023-02-18T19:05:33.797Z,11.93
2023-02-18T19:08:02.524Z,16.73
2023-02-18T19:10:34.636Z,13.50
2023-02-18T19:13:03.219Z,17.70
2023-02-18T19:15:31.374Z,16.23
2023-02-18T19:17:59.252Z,20.60
2023-02-18T19:20:29.344Z,15.37
2023-02-18T19:22:57.144Z,17.67
2023-02-18T19:25:25.363Z,20.63
2023-02-18T19:27:54.476Z,23.37
2023-02-18T19:30:23.874Z,17.90
2023-02-18T19:32:52.644Z,21.37
2023-02-18T19:35:20.802Z,19.60
2023-02-18T19:37:48.802Z,17.10
2023-02-18T19:40:19.724Z,20.17
2023-02-18T19:42:47.707Z,19.83
2023-02-18T19:45:17.412Z,21.00
2023-02-18T19:47:45.287Z,24.27
2023-02-18T19:50:15.284Z,19.23
2023-02-18T19:52:43.044Z,24.93
2023-02-18T19:55:11.212Z,23.53
2023-02-18T19:57:39.274Z,26.73
2023-02-18T20:00:09.571Z,18.83
2023-02-18T20:02:39.566Z,25.93
2023-02-18T20:05:08.354Z,22.13
2023-02-18T20:07:36.584Z,26.50
2023-02-18T20:10:04.577Z,25.33
2023-02-18T20:12:32.853Z,24.00
2023-02-18T20:15:00.586Z,23.73
2023-02-18T20:17:28.341Z,24.70
2023-02-18T20:19:57.373Z,28.03
2023-02-18T20:22:25.166Z,24.93
2023-02-18T20:24:52.872Z,22.13
2023-02-18T20:27:20.594Z,21.03
2023-02-18T20:29:48.285Z,27.17
2023-02-18T20:32:18.678Z,22.50
2023-02-18T20:34:46.656Z,27.43
2023-02-18T20:37:15.703Z,18.83
2023-02-18T20:39:43.480Z,27.97
2023-02-18T20:42:16.271Z,24.43
2023-02-18T20:44:44.661Z,23.50
2023-02-18T20:47:13.492Z,23.70
2023-02-18T20:49:41.568Z,23.67
2023-02-18T20:52:09.316Z,23.80
2023-02-18T20:54:38.373Z,16.07
2023-02-18T20:57:06.089Z,20.07
2023-02-18T20:59:34.228Z,25.10
2023-02-18T21:02:02.215Z,27.97
2023-02-18T21:04:29.984Z,25.87
2023-02-18T21:06:57.722Z,22.73
2023-02-18T21:09:25.892Z,23.13
2023-02-18T21:11:55.021Z,30.93
2023-02-18T21:14:22.739Z,24.23
2023-02-18T21:16:50.567Z,24.10
2023-02-18T21:19:18.813Z,26.30
2023-02-18T21:21:47.862Z,21.33
2023-02-18T21:24:15.576Z,27.40
2023-02-18T21:26:43.744Z,25.63
2023-02-18T21:29:13.006Z,23.23
2023-02-18T21:31:42.549Z,32.23
2023-02-18T21:34:12.470Z,24.20
2023-02-18T21:36:40.388Z,30.57
2023-02-18T21:39:10.035Z,35.83
2023-02-18T21:41:40.481Z,32.00
2023-02-18T21:44:08.837Z,34.77
2023-02-18T21:46:38.530Z,42.73
2023-02-18T21:49:07.011Z,41.57
2023-02-18T21:51:55.801Z,37.50
2023-02-18T21:54:25.157Z,40.47
2023-02-18T21:56:53.413Z,46.80
2023-02-18T21:59:21.829Z,49.03
2023-02-18T22:01:51.060Z,44.13
2023-02-18T22:04:18.851Z,44.90
2023-02-18T22:06:46.540Z,47.57
2023-02-18T22:09:14.848Z,42.90
2023-02-18T22:11:43.460Z,48.40
2023-02-18T22:14:11.599Z,47.03
2023-02-18T22:16:39.648Z,43.90
2023-02-18T22:19:08.880Z,44.43
2023-02-18T22:21:36.716Z,50.13
2023-02-18T22:24:05.246Z,56.07
2023-02-18T22:26:33.102Z,53.00
2023-02-18T22:29:01.402Z,53.47
2023-02-18T22:31:30.623Z,61.10
2023-02-18T22:33:59.309Z,65.83
2023-02-18T22:36:29.731Z,58.50
2023-02-18T22:38:58.484Z,68.60
2023-02-18T22:41:28.538Z,66.33
2023-02-18T22:43:56.477Z,64.90
2023-02-18T22:46:24.313Z,64.97
2023-02-18T22:48:52.436Z,59.70
2023-02-18T22:51:23.218Z,63.57
2023-02-18T22:53:53.176Z,69.10
2023-02-18T22:56:21.917Z,62.07
2023-02-18T22:58:50.804Z,64.97
2023-02-18T23:01:20.875Z,60.50
2023-02-18T23:03:48.608Z,59.83
2023-02-18T23:06:16.325Z,58.97
2023-02-18T23:08:44.035Z,66.37
2023-02-18T23:11:14.399Z,69.60
2023-02-18T23:13:42.780Z,61.80
2023-02-18T23:16:13.248Z,53.60
2023-02-18T23:18:41.331Z,49.30
2023-02-18T23:21:18.253Z,50.37
2023-02-18T23:23:46.876Z,52.27
2023-02-18T23:26:16.231Z,53.47
2023-02-18T23:28:48.543Z,52.07
2023-02-18T23:31:18.097Z,62.53
2023-02-18T23:33:46.117Z,58.43
2023-02-18T23:36:15.815Z,60.57
2023-02-18T23:38:43.535Z,59.40
2023-02-18T23:41:11.423Z,57.00
2023-02-18T23:43:40.638Z,55.43
2023-02-18T23:46:08.493Z,59.13
2023-02-18T23:48:38.311Z,60.67
2023-02-18T23:51:08.473Z,53.30
2023-02-18T23:53:37.562Z,67.83
2023-02-18T23:56:07.711Z,57.70
2023-02-18T23:58:35.868Z,56.90
